Time;durP1;ratioP1;P1;durP2;ratioP2;P2;SDS_P1;SDS_P2;PMS_P1;PMS_P2;Temp;Humidity;BMP_temperature;BMP_pressure;BME280_temperature;BME280_humidity;BME280_pressure;Samples;Min_cycle;Max_cycle;Signal;HPM_P1;HPM_P2
2021/09/02 00:00:34;;;;;;;10.43;5.35;;;18.10;65.60;;;;;;4993885;28;20154;-69
2021/09/02 00:03:00;;;;;;;7.97;4.93;;;18.00;66.50;;;;;;4976673;28;20057;-69
2021/09/02 00:05:26;;;;;;;7.63;4.50;;;17.90;66.80;;;;;;4976578;28;20054;-69
2021/09/02 00:07:51;;;;;;;10.05;4.35;;;17.90;66.80;;;;;;4994345;28;20030;-69
2021/09/02 00:10:18;;;;;;;8.93;5.15;;;17.90;66.90;;;;;;4990422;28;20026;-69
2021/09/02 00:12:43;;;;;;;8.50;5.38;;;17.80;68.10;;;;;;4994011;28;20026;-69
2021/09/02 00:15:10;;;;;;;8.57;4.78;;;17.80;67.70;;;;;;4993457;28;20052;-69
2021/09/02 00:17:36;;;;;;;9.65;5.18;;;17.80;67.70;;;;;;4993719;28;20034;-69
2021/09/02 00:20:04;;;;;;;7.85;5.10;;;17.80;68.10;;;;;;4976339;28;20506;-69
2021/09/02 00:22:29;;;;;;;10.07;5.63;;;17.80;67.20;;;;;;4993991;28;20491;-69
2021/09/02 00:24:55;;;;;;;9.73;5.22;;;17.80;68.40;;;;;;4994311;28;20094;-69
2021/09/02 00:27:21;;;;;;;10.23;5.18;;;17.80;67.30;;;;;;4993677;28;20038;-69
2021/09/02 00:29:46;;;;;;;10.50;5.07;;;17.80;67.80;;;;;;4993228;28;20109;-69
2021/09/02 00:32:12;;;;;;;7.28;5.22;;;17.70;67.80;;;;;;4976042;28;20084;-69
2021/09/02 00:34:37;;;;;;;10.55;5.78;;;17.70;67.30;;;;;;4993672;28;20022;-69
2021/09/02 00:37:03;;;;;;;8.75;5.13;;;17.70;67.50;;;;;;4994026;28;20113;-69
2021/09/02 00:39:29;;;;;;;8.82;5.55;;;17.70;67.50;;;;;;4975806;28;20081;-70
2021/09/02 00:41:55;;;;;;;8.30;5.55;;;17.60;69.20;;;;;;4993520;28;20113;-68
2021/09/02 00:44:37;;;;;;;8.93;5.30;;;17.60;67.50;;;;;;4993089;28;20109;-70
2021/09/02 00:47:04;;;;;;;9.83;5.73;;;17.60;67.20;;;;;;4979675;28;20033;-69
2021/09/02 00:49:30;;;;;;;7.75;4.95;;;17.60;67.50;;;;;;4993269;28;20383;-69
2021/09/02 00:52:07;;;;;;;8.70;5.60;;;17.60;67.50;;;;;;4993736;28;20030;-69
2021/09/02 00:54:32;;;;;;;9.93;5.75;;;17.60;68.10;;;;;;4975612;28;20561;-69
2021/09/02 00:56:58;;;;;;;11.20;5.97;;;17.60;68.10;;;;;;4992706;28;20038;-69
2021/09/02 00:59:25;;;;;;;10.75;5.53;;;17.60;68.20;;;;;;4993208;28;20058;-69
2021/09/02 01:01:51;;;;;;;9.95;5.82;;;17.60;68.70;;;;;;4977832;28;20034;-69
2021/09/02 01:04:17;;;;;;;11.20;5.75;;;17.60;68.30;;;;;;4993469;28;20026;-69
2021/09/02 01:06:44;;;;;;;9.68;5.80;;;17.60;68.00;;;;;;4993097;28;20030;-69
2021/09/02 01:09:11;;;;;;;10.85;5.97;;;17.60;68.40;;;;;;4992826;28;20062;-69
2021/09/02 01:11:37;;;;;;;10.93;5.57;;;17.50;68.90;;;;;;4992526;28;20513;-69
2021/09/02 01:14:02;;;;;;;10.45;6.32;;;17.40;68.70;;;;;;4975492;28;20031;-69
2021/09/02 01:16:28;;;;;;;11.32;5.93;;;17.50;68.20;;;;;;4992970;28;20034;-69
2021/09/02 01:18:53;;;;;;;11.18;5.72;;;17.40;68.20;;;;;;4992222;28;20134;-67
2021/09/02 01:21:19;;;;;;;8.63;5.30;;;17.40;68.10;;;;;;4992761;28;20109;-70
2021/09/02 01:23:45;;;;;;;10.73;6.50;;;17.50;68.40;;;;;;4992194;28;20030;-69
2021/09/02 01:26:15;;;;;;;10.45;6.30;;;17.50;67.80;;;;;;4992443;28;20406;-69
2021/09/02 01:28:42;;;;;;;13.68;6.57;;;17.50;67.90;;;;;;4992853;28;20027;-69
2021/09/02 01:31:07;;;;;;;9.32;6.13;;;17.50;68.80;;;;;;4993239;28;20051;-69
2021/09/02 01:33:33;;;;;;;11.13;6.40;;;17.40;67.80;;;;;;4992507;28;20118;-69
2021/09/02 01:35:59;;;;;;;11.23;5.95;;;17.50;68.60;;;;;;4975169;28;20176;-69
2021/09/02 01:38:24;;;;;;;10.82;6.75;;;17.30;68.70;;;;;;4974919;28;20030;-69
2021/09/02 01:40:51;;;;;;;11.13;6.40;;;17.30;68.90;;;;;;4992369;28;20026;-69
2021/09/02 01:43:17;;;;;;;9.10;6.68;;;17.30;68.40;;;;;;4993042;28;20035;-69
2021/09/02 01:45:44;;;;;;;9.43;6.60;;;17.30;68.40;;;;;;4992472;28;20029;-69
2021/09/02 01:48:09;;;;;;;9.80;6.50;;;17.30;68.00;;;;;;4992422;28;20026;-69
2021/09/02 01:50:40;;;;;;;11.35;6.65;;;17.30;68.30;;;;;;4992434;28;20397;-69
2021/09/02 01:53:08;;;;;;;11.57;6.38;;;17.30;68.20;;;;;;4992545;28;20442;-69
2021/09/02 01:55:35;;;;;;;9.25;6.15;;;17.30;68.30;;;;;;4992168;28;20401;-69
2021/09/02 01:58:01;;;;;;;10.98;6.97;;;17.30;68.10;;;;;;4992732;28;20035;-69
2021/09/02 02:00:26;;;;;;;10.93;6.70;;;17.30;68.20;;;;;;4992155;28;20084;-68
2021/09/02 02:02:52;;;;;;;11.10;6.88;;;17.30;67.90;;;;;;4974765;28;20062;-69
2021/09/02 02:05:18;;;;;;;11.50;7.20;;;17.30;67.80;;;;;;4992393;28;20049;-69
2021/09/02 02:07:45;;;;;;;10.30;6.68;;;17.30;68.10;;;;;;4974850;28;20422;-69
2021/09/02 02:10:14;;;;;;;11.90;6.93;;;17.20;68.10;;;;;;4992437;28;20088;-69
2021/09/02 02:12:39;;;;;;;13.75;6.78;;;17.20;68.00;;;;;;4974938;28;20062;-69
2021/09/02 02:15:06;;;;;;;11.68;7.30;;;17.20;68.10;;;;;;4992095;28;20526;-69
2021/09/02 02:17:32;;;;;;;13.07;6.90;;;17.20;68.10;;;;;;4992064;28;20092;-69
2021/09/02 02:19:58;;;;;;;10.13;6.75;;;17.20;68.20;;;;;;4992218;28;20049;-68
2021/09/02 02:22:24;;;;;;;14.65;6.85;;;17.20;67.90;;;;;;4992422;28;20038;-68
2021/09/02 02:24:49;;;;;;;10.35;7.05;;;17.20;68.20;;;;;;4992142;28;20029;-68
2021/09/02 02:27:15;;;;;;;11.48;7.43;;;17.20;68.70;;;;;;4992105;28;20088;-67
2021/09/02 02:29:41;;;;;;;10.27;7.00;;;17.10;68.40;;;;;;4991953;28;20085;-67
2021/09/02 02:32:07;;;;;;;11.48;6.95;;;17.10;68.30;;;;;;4992031;28;20050;-67
2021/09/02 02:34:32;;;;;;;11.05;7.35;;;17.10;68.60;;;;;;4992142;28;20553;-69
2021/09/02 02:36:58;;;;;;;12.68;7.75;;;17.00;68.90;;;;;;4995696;28;20041;-69
2021/09/02 02:39:24;;;;;;;11.60;7.57;;;17.00;68.80;;;;;;4995304;28;20068;-68
2021/09/02 02:41:50;;;;;;;12.48;7.45;;;17.00;68.50;;;;;;4995667;28;20034;-69
2021/09/02 02:44:15;;;;;;;12.50;7.25;;;17.00;68.50;;;;;;4995649;28;20376;-69
2021/09/02 02:46:41;;;;;;;12.82;7.45;;;16.90;68.90;;;;;;4995697;28;20045;-69
2021/09/02 02:49:06;;;;;;;12.40;7.18;;;16.90;68.80;;;;;;4996141;28;20503;-69
2021/09/02 02:51:34;;;;;;;11.57;7.68;;;16.90;68.60;;;;;;4995531;28;20483;-70
2021/09/02 02:54:00;;;;;;;11.13;7.15;;;16.90;69.40;;;;;;4995204;28;20117;-68
2021/09/02 02:56:26;;;;;;;12.30;7.75;;;16.80;69.10;;;;;;4995368;28;20092;-69
2021/09/02 02:58:51;;;;;;;13.25;7.78;;;16.90;68.90;;;;;;4995315;28;20177;-69
2021/09/02 03:01:17;;;;;;;10.57;7.40;;;16.80;68.70;;;;;;4996137;28;20467;-69
2021/09/02 03:03:43;;;;;;;12.40;7.70;;;16.80;68.60;;;;;;4995214;28;20034;-68
2021/09/02 03:06:09;;;;;;;12.75;7.63;;;16.90;68.90;;;;;;4995362;28;20022;-69
2021/09/02 03:08:35;;;;;;;13.40;7.72;;;16.80;68.60;;;;;;4994849;28;20034;-68
2021/09/02 03:11:00;;;;;;;11.40;7.18;;;16.80;69.00;;;;;;4995272;28;20022;-68
2021/09/02 03:13:26;;;;;;;13.25;8.20;;;16.80;69.20;;;;;;4995600;28;20447;-69
2021/09/02 03:15:52;;;;;;;13.27;7.65;;;16.80;68.70;;;;;;4994484;28;20502;-68
2021/09/02 03:18:17;;;;;;;13.00;7.97;;;16.80;68.60;;;;;;4994789;28;20415;-69
2021/09/02 03:20:43;;;;;;;14.38;7.30;;;16.80;68.80;;;;;;4994939;28;20080;-69
2021/09/02 03:23:09;;;;;;;12.75;7.78;;;16.80;69.10;;;;;;4994730;28;20034;-69
2021/09/02 03:25:34;;;;;;;13.93;7.53;;;16.80;69.00;;;;;;4995121;28;20034;-69
2021/09/02 03:28:00;;;;;;;11.25;7.57;;;16.80;68.80;;;;;;4993365;28;20030;-69
2021/09/02 03:30:26;;;;;;;13.80;7.72;;;16.70;68.80;;;;;;4994634;28;20043;-69
2021/09/02 03:32:51;;;;;;;13.07;7.55;;;16.80;68.90;;;;;;4994733;28;20026;-69
2021/09/02 03:35:17;;;;;;;12.23;7.75;;;16.70;69.00;;;;;;4994803;28;20054;-69
2021/09/02 03:37:42;;;;;;;13.23;8.23;;;16.70;69.10;;;;;;4994415;28;20521;-69
2021/09/02 03:40:08;;;;;;;13.18;8.05;;;16.70;68.80;;;;;;4995290;28;20070;-68
2021/09/02 03:42:34;;;;;;;11.02;7.57;;;16.60;69.30;;;;;;4994567;28;20088;-69
2021/09/02 03:45:00;;;;;;;12.77;7.57;;;16.50;69.10;;;;;;4994462;28;20085;-69
2021/09/02 03:47:25;;;;;;;12.35;7.50;;;16.60;69.40;;;;;;4994092;28;20034;-69
2021/09/02 03:49:51;;;;;;;10.00;7.32;;;16.50;69.30;;;;;;4994549;28;20026;-69
2021/09/02 03:52:17;;;;;;;13.23;7.40;;;16.50;69.10;;;;;;4994709;28;20116;-69
2021/09/02 03:54:42;;;;;;;14.10;7.97;;;16.50;69.20;;;;;;4994350;28;20391;-69
2021/09/02 03:57:08;;;;;;;11.75;7.60;;;16.50;69.20;;;;;;4994179;28;20166;-69
2021/09/02 03:59:33;;;;;;;13.52;8.07;;;16.50;69.20;;;;;;4976699;28;20034;-69
2021/09/02 04:01:59;;;;;;;15.05;7.90;;;16.50;69.10;;;;;;4993507;28;20030;-69
2021/09/02 04:04:24;;;;;;;13.43;8.05;;;16.50;69.60;;;;;;4994152;28;20034;-69
2021/09/02 04:06:50;;;;;;;13.10;8.38;;;16.50;69.60;;;;;;4993501;28;20030;-69
2021/09/02 04:09:16;;;;;;;14.00;7.75;;;16.40;69.60;;;;;;4993378;28;20035;-69
2021/09/02 04:11:41;;;;;;;14.80;7.63;;;16.40;69.30;;;;;;4993436;28;20446;-69
2021/09/02 04:14:07;;;;;;;13.15;7.18;;;16.40;70.20;;;;;;4993595;28;20376;-69
2021/09/02 04:16:32;;;;;;;12.52;7.03;;;16.40;69.70;;;;;;4993537;28;20549;-69
2021/09/02 04:18:58;;;;;;;14.15;7.47;;;16.30;69.40;;;;;;4993914;28;20081;-69
2021/09/02 04:21:23;;;;;;;13.02;8.25;;;16.40;69.70;;;;;;4993527;28;20060;-69
2021/09/02 04:23:49;;;;;;;14.50;8.18;;;16.40;69.50;;;;;;4993803;28;20027;-69
2021/09/02 04:26:15;;;;;;;18.20;8.10;;;16.40;69.60;;;;;;4993777;28;20046;-69
2021/09/02 04:28:41;;;;;;;13.02;7.60;;;16.30;69.70;;;;;;4993725;28;20061;-69
2021/09/02 04:31:07;;;;;;;13.10;7.85;;;16.30;70.00;;;;;;4994041;28;20426;-69
2021/09/02 04:33:32;;;;;;;13.13;8.30;;;16.30;70.10;;;;;;4993537;28;20118;-69
2021/09/02 04:35:58;;;;;;;12.13;7.57;;;16.30;69.70;;;;;;4993185;28;20026;-69
2021/09/02 04:38:24;;;;;;;13.75;8.10;;;16.20;69.80;;;;;;4993349;28;20506;-69
2021/09/02 04:40:51;;;;;;;12.85;8.73;;;16.20;69.80;;;;;;4993663;28;20048;-69
2021/09/02 04:43:17;;;;;;;11.75;7.88;;;16.10;70.30;;;;;;4972421;28;20509;-69
2021/09/02 04:45:43;;;;;;;13.68;8.15;;;16.10;70.00;;;;;;4993295;28;20034;-69
2021/09/02 04:48:20;;;;;;;12.18;8.07;;;16.10;70.30;;;;;;4993177;28;20034;-69
2021/09/02 04:50:48;;;;;;;11.88;8.18;;;16.20;70.50;;;;;;4993030;28;20105;-69
2021/09/02 04:53:14;;;;;;;13.95;7.80;;;16.10;70.30;;;;;;4993288;28;20120;-69
2021/09/02 04:55:40;;;;;;;14.98;8.00;;;16.10;70.20;;;;;;4993255;28;20024;-69
2021/09/02 04:58:07;;;;;;;13.18;8.20;;;16.10;70.80;;;;;;4975497;28;20086;-69
2021/09/02 05:00:37;;;;;;;13.05;8.00;;;16.10;70.30;;;;;;4993132;28;20061;-69
2021/09/02 05:03:03;;;;;;;11.05;7.95;;;16.10;70.40;;;;;;4992972;28;20415;-69
2021/09/02 05:05:29;;;;;;;12.82;7.60;;;16.00;70.10;;;;;;4992564;28;20045;-69
2021/09/02 05:07:55;;;;;;;12.50;7.90;;;16.10;70.20;;;;;;4993038;28;20029;-69
2021/09/02 05:10:20;;;;;;;11.63;8.20;;;16.10;70.40;;;;;;4993363;28;20019;-69
2021/09/02 05:12:46;;;;;;;12.68;7.85;;;16.10;70.50;;;;;;4975532;28;20026;-69
2021/09/02 05:15:12;;;;;;;12.75;7.85;;;16.10;70.80;;;;;;4975410;28;20034;-69
2021/09/02 05:17:38;;;;;;;10.88;7.13;;;16.10;70.40;;;;;;4992611;28;20557;-70
2021/09/02 05:20:04;;;;;;;11.55;7.88;;;16.10;70.40;;;;;;4992780;28;20077;-69
2021/09/02 05:22:30;;;;;;;14.27;7.75;;;16.20;70.50;;;;;;4992846;28;20524;-69
2021/09/02 05:24:55;;;;;;;11.35;7.43;;;16.20;70.30;;;;;;4993215;28;20030;-69
2021/09/02 05:27:21;;;;;;;11.48;7.63;;;16.20;70.40;;;;;;4992584;28;20027;-69
2021/09/02 05:29:46;;;;;;;14.05;7.38;;;16.20;70.10;;;;;;4992595;28;20022;-69
2021/09/02 05:32:12;;;;;;;12.45;8.20;;;16.20;71.10;;;;;;4992077;28;20057;-69
2021/09/02 05:34:38;;;;;;;11.38;7.50;;;16.10;70.10;;;;;;4992759;28;20030;-69
2021/09/02 05:37:04;;;;;;;12.55;7.60;;;16.10;70.20;;;;;;4993068;28;20038;-69
2021/09/02 05:39:29;;;;;;;14.68;8.02;;;16.20;70.40;;;;;;4992389;28;20026;-69
2021/09/02 05:41:56;;;;;;;12.60;7.68;;;16.20;70.30;;;;;;4992582;28;20034;-69
2021/09/02 05:44:21;;;;;;;13.65;8.02;;;16.20;70.40;;;;;;4992481;28;20027;-69
2021/09/02 05:46:47;;;;;;;10.73;6.95;;;16.20;70.20;;;;;;4992152;28;20081;-68
2021/09/02 05:49:13;;;;;;;11.38;7.60;;;16.20;70.70;;;;;;4992933;28;20030;-69
2021/09/02 05:51:39;;;;;;;13.65;8.27;;;16.30;70.40;;;;;;4992278;28;20038;-69
2021/09/02 05:54:05;;;;;;;12.13;8.20;;;16.30;70.20;;;;;;4992183;28;20471;-69
2021/09/02 05:56:30;;;;;;;10.63;7.30;;;16.30;71.10;;;;;;4992076;28;20034;-68
2021/09/02 05:58:56;;;;;;;11.73;8.00;;;16.30;70.30;;;;;;4992435;28;20031;-68
2021/09/02 06:01:22;;;;;;;11.63;6.95;;;16.40;70.00;;;;;;4992410;28;20037;-68
2021/09/02 06:03:48;;;;;;;15.25;7.80;;;16.40;70.10;;;;;;4992510;28;20026;-68
2021/09/02 06:06:13;;;;;;;13.98;8.02;;;16.50;70.20;;;;;;4992196;28;20045;-68
2021/09/02 06:08:39;;;;;;;13.15;7.47;;;16.60;70.90;;;;;;4992115;28;20027;-69
2021/09/02 06:11:05;;;;;;;11.70;6.82;;;16.60;69.90;;;;;;4996002;28;20026;-69
2021/09/02 06:13:31;;;;;;;10.07;7.30;;;16.70;70.00;;;;;;4996364;28;20026;-69
2021/09/02 06:15:57;;;;;;;11.90;6.85;;;16.70;69.90;;;;;;4996257;28;20038;-68
2021/09/02 06:18:23;;;;;;;10.43;7.05;;;16.80;69.70;;;;;;4995849;28;20096;-69
2021/09/02 06:20:49;;;;;;;10.77;7.13;;;16.90;69.50;;;;;;4995935;28;20065;-68
2021/09/02 06:23:14;;;;;;;12.82;7.32;;;17.10;69.60;;;;;;4996107;28;20065;-69
2021/09/02 06:25:40;;;;;;;10.73;6.95;;;17.10;69.30;;;;;;4978609;28;20066;-69
2021/09/02 06:28:06;;;;;;;12.23;7.63;;;17.20;68.90;;;;;;4996971;28;20038;-69
2021/09/02 06:30:31;;;;;;;10.60;7.05;;;17.30;69.00;;;;;;4996117;28;20050;-69
2021/09/02 06:32:57;;;;;;;12.75;7.57;;;17.40;68.80;;;;;;4978261;28;20379;-68
2021/09/02 06:35:23;;;;;;;9.18;6.55;;;17.50;69.60;;;;;;4995958;28;20117;-69
2021/09/02 06:37:49;;;;;;;9.93;6.60;;;17.60;68.40;;;;;;4980163;28;20117;-68
2021/09/02 06:40:14;;;;;;;11.02;7.38;;;17.70;68.20;;;;;;4996199;28;20023;-68
2021/09/02 06:42:40;;;;;;;12.10;6.88;;;17.70;67.80;;;;;;4995697;28;20038;-68
2021/09/02 06:45:06;;;;;;;9.73;6.68;;;17.80;67.90;;;;;;4995149;28;20113;-69
2021/09/02 06:47:32;;;;;;;11.30;6.68;;;17.90;68.00;;;;;;4977647;28;20034;-67
2021/09/02 06:49:59;;;;;;;11.00;6.70;;;18.00;67.70;;;;;;4995659;28;20088;-68
2021/09/02 06:52:24;;;;;;;9.73;6.55;;;18.10;67.60;;;;;;4995698;28;20157;-68
2021/09/02 06:54:50;;;;;;;13.30;7.53;;;18.20;68.10;;;;;;4995807;28;20506;-68
2021/09/02 06:57:15;;;;;;;11.20;6.57;;;18.30;66.50;;;;;;4995142;28;20038;-68
2021/09/02 06:59:41;;;;;;;11.02;6.85;;;18.20;66.50;;;;;;4977502;28;20030;-69
2021/09/02 07:02:07;;;;;;;9.43;6.28;;;18.40;66.80;;;;;;4995364;28;20447;-69
2021/09/02 07:04:32;;;;;;;12.52;6.68;;;18.40;66.80;;;;;;4995356;28;20022;-68
2021/09/02 07:06:58;;;;;;;13.40;7.45;;;18.50;66.30;;;;;;4995736;28;20033;-69
2021/09/02 07:09:23;;;;;;;10.82;7.07;;;18.50;65.00;;;;;;4995035;28;20034;-69
2021/09/02 07:11:49;;;;;;;10.93;6.57;;;18.50;65.60;;;;;;4995117;28;20031;-69
2021/09/02 07:14:15;;;;;;;12.18;7.68;;;18.60;66.00;;;;;;4986836;28;20053;-69
2021/09/02 07:16:40;;;;;;;12.60;7.72;;;18.70;64.70;;;;;;4988887;28;20126;-70
2021/09/02 07:19:06;;;;;;;12.85;6.85;;;18.70;65.20;;;;;;4994715;28;20035;-70
2021/09/02 07:21:31;;;;;;;11.15;6.80;;;18.80;65.70;;;;;;4984269;28;20035;-69
2021/09/02 07:23:57;;;;;;;12.70;7.03;;;18.80;64.10;;;;;;4970606;28;20076;-69
2021/09/02 07:26:23;;;;;;;13.52;7.50;;;18.90;65.10;;;;;;4991772;28;20442;-68
2021/09/02 07:28:48;;;;;;;9.70;5.95;;;19.00;64.70;;;;;;4991676;28;20624;-69
2021/09/02 07:31:14;;;;;;;11.48;6.85;;;19.30;65.70;;;;;;4994428;28;20410;-68
2021/09/02 07:33:40;;;;;;;12.27;7.20;;;19.50;63.80;;;;;;4991625;28;20030;-68
2021/09/02 07:36:05;;;;;;;10.60;6.65;;;19.40;63.00;;;;;;4991660;28;20053;-69
2021/09/02 07:38:31;;;;;;;12.30;7.32;;;19.60;64.40;;;;;;4991310;28;20406;-69
2021/09/02 07:40:57;;;;;;;11.30;7.30;;;19.70;63.20;;;;;;4974168;28;20089;-68
2021/09/02 07:43:22;;;;;;;9.85;6.38;;;19.70;64.00;;;;;;4976323;28;20026;-69
2021/09/02 07:45:48;;;;;;;11.02;6.88;;;20.00;63.30;;;;;;4990957;28;20100;-69
2021/09/02 07:48:13;;;;;;;12.15;7.68;;;19.90;61.70;;;;;;4990973;28;20058;-68
2021/09/02 07:50:39;;;;;;;11.88;7.25;;;19.90;61.50;;;;;;4989153;28;20511;-69
2021/09/02 07:53:05;;;;;;;11.48;6.95;;;19.90;61.50;;;;;;4977629;28;20077;-69
2021/09/02 07:55:30;;;;;;;11.68;7.32;;;19.60;61.10;;;;;;4993503;28;20031;-69
2021/09/02 07:57:58;;;;;;;11.25;7.43;;;19.60;62.30;;;;;;4991781;28;20030;-69
2021/09/02 08:00:24;;;;;;;11.75;7.88;;;19.60;61.80;;;;;;4986585;28;20033;-69
2021/09/02 08:02:50;;;;;;;10.20;6.65;;;19.80;62.10;;;;;;4984082;28;20034;-69
2021/09/02 08:05:15;;;;;;;11.27;6.90;;;19.90;61.50;;;;;;4978796;28;20023;-69
2021/09/02 08:07:53;;;;;;;10.63;7.15;;;19.80;61.00;;;;;;4992299;28;20092;-69
2021/09/02 08:10:21;;;;;;;11.23;7.35;;;19.90;61.20;;;;;;4984575;28;20031;-69
2021/09/02 08:12:47;;;;;;;12.00;7.40;;;19.90;61.00;;;;;;4992053;28;20096;-69
2021/09/02 08:15:16;;;;;;;12.77;7.30;;;19.80;61.00;;;;;;4975812;28;20033;-69
2021/09/02 08:17:42;;;;;;;10.05;6.97;;;20.10;61.70;;;;;;4975513;28;20035;-69
2021/09/02 08:20:08;;;;;;;9.10;6.20;;;20.40;61.20;;;;;;4990100;28;20033;-69
2021/09/02 08:22:34;;;;;;;10.20;6.22;;;20.70;62.30;;;;;;4977141;28;20133;-69
2021/09/02 08:24:59;;;;;;;9.50;6.38;;;20.90;60.90;;;;;;4991349;28;20533;-69
2021/09/02 08:27:25;;;;;;;9.60;6.35;;;21.20;59.50;;;;;;4990028;28;20030;-69
2021/09/02 08:29:51;;;;;;;11.07;6.20;;;21.40;60.40;;;;;;4989873;28;20497;-69
2021/09/02 08:32:17;;;;;;;9.00;6.40;;;21.60;60.20;;;;;;4989837;28;20047;-69
2021/09/02 08:34:42;;;;;;;10.23;6.18;;;21.70;59.00;;;;;;4991770;28;20030;-70
2021/09/02 08:37:09;;;;;;;12.95;6.50;;;22.00;57.70;;;;;;4993402;28;20026;-69
2021/09/02 08:39:35;;;;;;;9.65;5.72;;;21.90;57.40;;;;;;4990071;28;20045;-69
2021/09/02 08:42:02;;;;;;;9.30;6.20;;;21.90;57.40;;;;;;4989424;28;20294;-69
2021/09/02 08:44:28;;;;;;;10.02;5.88;;;22.00;58.30;;;;;;4989249;28;20042;-69
2021/09/02 08:46:55;;;;;;;11.68;6.07;;;22.40;58.10;;;;;;4989844;28;20022;-69
2021/09/02 08:49:24;;;;;;;10.05;5.82;;;22.70;57.70;;;;;;4993442;28;20030;-69
2021/09/02 08:51:50;;;;;;;9.00;5.65;;;22.90;57.50;;;;;;4990430;28;20034;-70
2021/09/02 08:54:16;;;;;;;8.30;6.43;;;22.90;56.60;;;;;;4990180;28;20031;-69
2021/09/02 08:56:41;;;;;;;8.35;5.53;;;22.60;53.80;;;;;;4989598;28;20030;-70
2021/09/02 08:59:07;;;;;;;8.23;5.30;;;22.70;56.30;;;;;;4989923;28;20030;-70
2021/09/02 09:01:33;;;;;;;8.48;5.65;;;23.10;57.30;;;;;;4992180;28;20029;-70
2021/09/02 09:04:08;;;;;;;8.95;5.80;;;23.40;54.30;;;;;;4991093;28;20061;-70
2021/09/02 09:06:33;;;;;;;7.47;5.22;;;23.50;54.00;;;;;;4989877;28;20022;-71
2021/09/02 09:08:59;;;;;;;9.10;5.68;;;23.30;55.00;;;;;;4989883;28;20034;-71
2021/09/02 09:11:28;;;;;;;9.82;5.80;;;23.50;52.90;;;;;;4984975;28;20504;-71
2021/09/02 09:14:13;;;;;;;8.63;5.30;;;23.50;52.70;;;;;;4973021;28;20034;-70
2021/09/02 09:16:42;;;;;;;9.50;5.88;;;23.90;55.10;;;;;;4991091;28;20483;-69
2021/09/02 09:19:07;;;;;;;8.50;5.18;;;23.80;51.00;;;;;;4987557;28;20038;-70
2021/09/02 09:21:33;;;;;;;8.30;5.20;;;24.10;53.60;;;;;;4974631;28;20081;-70
2021/09/02 09:24:07;;;;;;;8.10;5.78;;;24.40;50.80;;;;;;4986918;28;20073;-70
2021/09/02 09:26:35;;;;;;;9.20;5.63;;;24.20;49.70;;;;;;4984593;28;20026;-70
2021/09/02 09:29:22;;;;;;;7.57;5.40;;;24.20;49.10;;;;;;4982925;28;20508;-70
2021/09/02 09:31:48;;;;;;;9.15;5.68;;;24.20;50.40;;;;;;4981704;28;20051;-70
2021/09/02 09:34:13;;;;;;;9.25;5.60;;;24.20;49.10;;;;;;4981325;28;20022;-70
2021/09/02 09:36:39;;;;;;;9.48;6.13;;;24.80;51.30;;;;;;4986041;28;20030;-70
2021/09/02 09:39:06;;;;;;;6.53;5.25;;;24.80;46.90;;;;;;4985859;28;20064;-69
2021/09/02 09:41:40;;;;;;;7.78;4.95;;;25.10;48.10;;;;;;4984408;28;20372;-70
2021/09/02 09:44:19;;;;;;;6.65;4.90;;;25.50;48.00;;;;;;4985015;28;20064;-70
2021/09/02 09:47:20;;;;;;;6.07;4.10;;;25.90;47.30;;;;;;4982984;28;20562;-69
2021/09/02 09:49:51;;;;;;;6.10;4.72;;;26.60;49.00;;;;;;4911118;29;20036;-69
2021/09/02 09:52:23;;;;;;;6.78;4.72;;;27.00;44.90;;;;;;4912084;29;20064;-69
2021/09/02 09:54:49;;;;;;;4.97;4.25;;;26.60;42.70;;;;;;4911971;29;20032;-70
2021/09/02 09:57:15;;;;;;;6.53;4.97;;;26.80;43.50;;;;;;4911344;29;20136;-69
2021/09/02 09:59:42;;;;;;;6.13;4.80;;;27.10;44.00;;;;;;4907737;29;20591;-69
2021/09/02 10:02:08;;;;;;;6.97;4.65;;;27.40;43.80;;;;;;4915896;29;20040;-69
2021/09/02 10:04:35;;;;;;;4.97;3.90;;;27.40;42.30;;;;;;4912482;29;20051;-68
2021/09/02 10:07:04;;;;;;;7.30;4.50;;;27.50;44.70;;;;;;4913304;29;20036;-68
2021/09/02 10:09:32;;;;;;;6.30;4.57;;;27.80;42.20;;;;;;4909922;29;20039;-68
2021/09/02 10:12:01;;;;;;;5.57;4.43;;;27.90;41.00;;;;;;4909552;29;20413;-70
2021/09/02 10:14:27;;;;;;;5.03;4.28;;;28.10;41.40;;;;;;4911424;29;20153;-70
2021/09/02 10:16:53;;;;;;;4.45;3.78;;;27.60;40.60;;;;;;4895565;29;20119;-70
2021/09/02 10:19:18;;;;;;;6.38;4.55;;;27.30;41.50;;;;;;4908392;29;20040;-70
2021/09/02 10:21:45;;;;;;;6.50;4.25;;;28.00;42.80;;;;;;4896106;29;20032;-71
2021/09/02 10:24:39;;;;;;;4.68;3.60;;;28.10;38.60;;;;;;4896489;28;20171;-70
2021/09/02 10:27:17;;;;;;;5.63;3.85;;;28.70;42.40;;;;;;4988540;28;20023;-70
2021/09/02 10:29:45;;;;;;;5.05;3.92;;;29.00;40.60;;;;;;4988229;28;20376;-70
2021/09/02 10:32:23;;;;;;;5.95;3.97;;;29.80;40.50;;;;;;4985507;28;20069;-71
2021/09/02 10:34:52;;;;;;;8.07;3.83;;;30.40;41.00;;;;;;4988919;28;20679;-71
2021/09/02 10:37:43;;;;;;;4.45;3.45;;;30.50;35.80;;;;;;4979891;28;20054;-70
2021/09/02 10:40:17;;;;;;;4.10;3.45;;;30.30;36.10;;;;;;4971013;28;20039;-70
2021/09/02 10:42:48;;;;;;;4.35;3.45;;;29.80;36.50;;;;;;4985478;28;20081;-70
2021/09/02 10:45:27;;;;;;;3.80;3.30;;;30.40;37.30;;;;;;4986842;28;20022;-71
2021/09/02 10:48:07;;;;;;;4.03;3.40;;;30.90;35.30;;;;;;4984780;28;20502;-72
2021/09/02 10:50:40;;;;;;;4.47;3.30;;;30.00;35.00;;;;;;4986387;28;20027;-71
2021/09/02 10:53:12;;;;;;;3.75;3.38;;;30.70;37.10;;;;;;4983173;28;20031;-71
2021/09/02 10:56:00;;;;;;;;;;;30.80;35.00;;;;;;4983970;28;20463;-71
2021/09/02 10:58:39;;;;;;;3.83;3.28;;;31.50;37.20;;;;;;4990653;28;19964;-72
2021/09/02 11:01:40;;;;;;;4.82;4.07;;;31.90;33.60;;;;;;4987415;28;20077;-71
2021/09/02 11:04:12;;;;;;;3.88;3.20;;;31.40;33.50;;;;;;4915553;29;20048;-72
2021/09/02 11:06:48;;;;;;;4.05;3.30;;;31.40;35.60;;;;;;4913139;29;20043;-71
2021/09/02 11:09:27;;;;;;;3.38;3.08;;;31.70;32.80;;;;;;4913036;29;20130;-70
2021/09/02 11:11:53;;;;;;;3.80;3.42;;;31.80;35.80;;;;;;4909384;29;20024;-71
2021/09/02 11:14:19;;;;;;;5.25;3.70;;;31.50;32.00;;;;;;4913118;29;20046;-70
2021/09/02 11:16:44;;;;;;;4.03;3.13;;;31.20;32.00;;;;;;4912267;29;20128;-71
2021/09/02 11:19:10;;;;;;;5.30;3.20;;;31.20;33.80;;;;;;4914703;29;20331;-69
2021/09/02 11:21:36;;;;;;;4.90;3.88;;;31.00;31.80;;;;;;4912281;29;20398;-71
2021/09/02 11:24:08;;;;;;;4.35;3.70;;;30.40;31.90;;;;;;4912798;29;20890;-71
2021/09/02 11:26:44;;;;;;;4.28;3.78;;;29.40;33.60;;;;;;4912516;29;20536;-72
2021/09/02 11:29:23;;;;;;;5.43;3.30;;;29.60;34.70;;;;;;4897840;29;20115;-71
2021/09/02 11:32:07;;;;;;;3.65;3.17;;;30.20;36.60;;;;;;4913096;29;20524;-71
2021/09/02 11:34:34;;;;;;;4.40;3.53;;;31.00;34.60;;;;;;4912252;29;20512;-72
2021/09/02 11:37:00;;;;;;;4.50;3.42;;;30.80;33.00;;;;;;4913588;29;20024;-71
2021/09/02 11:39:31;;;;;;;5.05;3.58;;;30.80;33.80;;;;;;4940553;28;20066;-71
2021/09/02 11:41:59;;;;;;;4.18;3.30;;;31.00;32.40;;;;;;4986727;28;20022;-69
2021/09/02 11:44:25;;;;;;;3.80;3.38;;;31.20;34.20;;;;;;4987904;28;20129;-69
2021/09/02 11:46:50;;;;;;;4.15;3.28;;;32.20;34.10;;;;;;4986193;28;20531;-69
2021/09/02 11:49:17;;;;;;;4.10;3.33;;;32.80;31.60;;;;;;4986127;28;20026;-69
2021/09/02 11:51:55;;;;;;;4.63;3.40;;;32.20;30.90;;;;;;4985967;28;20014;-69
2021/09/02 11:54:22;;;;;;;4.22;3.40;;;31.40;30.70;;;;;;4985607;28;20023;-69
2021/09/02 11:56:48;;;;;;;5.13;3.50;;;32.00;32.70;;;;;;4984824;28;20097;-69
2021/09/02 11:59:14;;;;;;;5.97;3.60;;;32.40;31.50;;;;;;4984050;28;20038;-69
2021/09/02 12:01:53;;;;;;;3.90;3.50;;;31.60;31.10;;;;;;4984750;28;20049;-69
2021/09/02 12:04:28;;;;;;;4.40;3.08;;;31.70;32.20;;;;;;4984206;28;20117;-69
2021/09/02 12:07:01;;;;;;;5.05;3.35;;;32.50;33.30;;;;;;4986210;28;20019;-70
2021/09/02 12:09:35;;;;;;;5.65;3.55;;;31.80;30.60;;;;;;4988353;28;20027;-70
2021/09/02 12:12:01;;;;;;;3.83;3.00;;;31.60;30.70;;;;;;4986521;28;20487;-71
2021/09/02 12:14:31;;;;;;;4.97;3.58;;;32.30;32.80;;;;;;4985463;28;20030;-69
2021/09/02 12:17:09;;;;;;;3.70;3.40;;;32.00;29.20;;;;;;4983309;28;20038;-69
2021/09/02 12:19:51;;;;;;;3.80;3.35;;;31.30;31.20;;;;;;4988056;28;20052;-70
2021/09/02 12:22:17;;;;;;;4.75;3.30;;;31.30;31.00;;;;;;4985914;28;20027;-69
2021/09/02 12:24:42;;;;;;;3.38;3.08;;;32.00;32.10;;;;;;4985321;28;20018;-71
2021/09/02 12:27:08;;;;;;;3.35;3.05;;;32.30;30.20;;;;;;4984990;28;20439;-71
2021/09/02 12:29:50;;;;;;;4.60;3.13;;;32.70;30.70;;;;;;4985681;28;20462;-70
2021/09/02 12:32:18;;;;;;;3.00;2.80;;;32.70;29.40;;;;;;4983525;28;20121;-71
2021/09/02 12:34:45;;;;;;;3.80;3.17;;;32.20;31.00;;;;;;4965734;28;20018;-71
2021/09/02 12:37:13;;;;;;;3.92;2.83;;;32.80;30.40;;;;;;4985791;28;20102;-71
2021/09/02 12:39:53;;;;;;;4.07;3.35;;;33.10;29.80;;;;;;4985666;28;20030;-70
2021/09/02 12:42:29;;;;;;;4.07;3.67;;;33.50;29.60;;;;;;4985568;28;20451;-70